Terminal Aerodrome Forecast
Issued by NWS

Home | Current Version | Previous Version | Graphics & Text | Print | Product List | Glossary On
Versions: 1 2 3 4 5 6 7 8 9 10 11 12 13 14 15 16 17 18
000
FTUS43 KMPX 140520
TAFAXN
TAF
KAXN 140520Z 1406/1506 13006KT P6SM VCSH BKN007 BKN050
     FM140800 11006KT 4SM BR OVC006
     FM141000 10007KT 1/2SM FG OVC003
     FM141500 10005KT 2SM BR OVC003
     FM141800 05006KT P6SM OVC007
     FM142100 07005KT P6SM SCT020 BKN040=

USA.gov is the U.S. government's official web portal to all federal, state and local government web resources and services.